createdAt,value
2018-05-06T00:01:08.534Z,22.67
2018-05-06T00:03:34.947Z,23.60
2018-05-06T00:06:01.386Z,25.07
2018-05-06T00:08:27.830Z,25.30
2018-05-06T00:10:54.253Z,24.17
2018-05-06T00:13:20.658Z,25.70
2018-05-06T00:15:47.819Z,27.53
2018-05-06T00:18:14.224Z,27.70
2018-05-06T00:20:40.634Z,28.63
2018-05-06T00:23:07.781Z,25.60
2018-05-06T00:25:34.185Z,25.17
2018-05-06T00:28:00.586Z,28.10
2018-05-06T00:30:27.742Z,27.90
2018-05-06T00:32:55.610Z,26.97
2018-05-06T00:35:22.058Z,27.10
2018-05-06T00:37:48.472Z,27.13
2018-05-06T00:40:15.625Z,28.50
2018-05-06T00:42:42.081Z,26.63
2018-05-06T00:45:08.512Z,25.70
2018-05-06T00:47:34.949Z,26.10
2018-05-06T00:50:01.365Z,27.90
2018-05-06T00:52:27.777Z,26.83
2018-05-06T00:54:54.937Z,28.33
2018-05-06T00:57:22.121Z,28.40
2018-05-06T00:59:48.538Z,28.07
2018-05-06T01:02:14.959Z,26.03
2018-05-06T01:04:41.519Z,28.03
2018-05-06T01:07:07.998Z,28.53
2018-05-06T01:09:34.402Z,27.60
2018-05-06T01:12:00.817Z,27.00
2018-05-06T01:14:27.229Z,29.83
2018-05-06T01:16:53.626Z,25.70
2018-05-06T01:19:20.137Z,29.07
2018-05-06T01:21:46.541Z,29.50
2018-05-06T01:24:12.976Z,29.63
2018-05-06T01:26:39.381Z,28.43
2018-05-06T01:29:06.529Z,29.13
2018-05-06T01:31:33.706Z,28.77
2018-05-06T01:34:00.121Z,28.60
2018-05-06T01:36:27.261Z,29.37
2018-05-06T01:38:54.406Z,30.90
2018-05-06T01:41:21.553Z,30.70
2018-05-06T01:43:47.957Z,30.83
2018-05-06T01:46:14.373Z,30.33
2018-05-06T01:48:40.785Z,29.23
2018-05-06T01:51:07.181Z,28.53
2018-05-06T01:53:33.582Z,31.00
2018-05-06T01:56:00.062Z,30.20
2018-05-06T01:58:27.237Z,30.97
2018-05-06T02:00:53.741Z,32.13
2018-05-06T02:03:20.096Z,32.13
2018-05-06T02:05:46.522Z,30.97
2018-05-06T02:08:13.672Z,29.80
2018-05-06T02:10:40.829Z,33.03
2018-05-06T02:13:07.234Z,31.70
2018-05-06T02:15:34.415Z,30.77
2018-05-06T02:18:00.861Z,31.67
2018-05-06T02:20:27.273Z,32.97
2018-05-06T02:22:54.425Z,34.53
2018-05-06T02:25:20.829Z,33.90
2018-05-06T02:27:48.254Z,31.93
2018-05-06T02:30:17.054Z,33.50
2018-05-06T02:32:44.249Z,33.07
2018-05-06T02:35:11.409Z,31.97
2018-05-06T02:37:37.822Z,31.20
2018-05-06T02:40:05.017Z,29.67
2018-05-06T02:42:31.434Z,31.80
2018-05-06T02:44:57.838Z,31.17
2018-05-06T02:47:26.050Z,31.73
2018-05-06T02:49:52.473Z,28.30
2018-05-06T02:52:18.898Z,30.77
2018-05-06T02:54:46.098Z,29.03
2018-05-06T02:57:12.502Z,29.70
2018-05-06T02:59:38.930Z,27.70
2018-05-06T03:02:05.375Z,28.70
2018-05-06T03:04:31.773Z,30.27
2018-05-06T03:06:58.201Z,29.00
2018-05-06T03:09:25.370Z,28.07
2018-05-06T03:11:51.773Z,27.67
2018-05-06T03:16:39.769Z,26.30
2018-05-06T03:19:06.185Z,22.57
2018-05-06T03:21:32.597Z,24.80
2018-05-06T03:23:59.763Z,23.23
2018-05-06T03:26:26.198Z,25.23
2018-05-06T03:28:53.614Z,21.00
2018-05-06T03:31:20.019Z,21.67
2018-05-06T03:33:46.439Z,20.33
2018-05-06T03:36:12.844Z,22.47
2018-05-06T03:38:40.061Z,21.70
2018-05-06T03:41:07.473Z,21.07
2018-05-06T03:43:33.922Z,20.60
2018-05-06T03:46:00.333Z,19.47
2018-05-06T03:48:26.730Z,19.00
2018-05-06T03:50:53.881Z,20.12
2018-05-06T03:53:21.033Z,20.57
2018-05-06T03:55:49.189Z,19.50
2018-05-06T03:58:28.013Z,20.57
2018-05-06T04:00:54.455Z,20.07
2018-05-06T04:03:20.861Z,20.20
2018-05-06T04:05:47.326Z,18.57
2018-05-06T04:08:15.485Z,20.00
2018-05-06T04:10:41.881Z,19.40
2018-05-06T04:13:08.282Z,19.83
2018-05-06T04:15:35.429Z,20.07
2018-05-06T04:18:02.585Z,19.70
2018-05-06T04:20:29.737Z,20.27
2018-05-06T04:22:56.162Z,19.60
2018-05-06T04:25:23.309Z,19.53
2018-05-06T04:27:50.465Z,18.50
2018-05-06T04:30:17.633Z,19.60
2018-05-06T04:32:44.061Z,17.43
2018-05-06T04:35:10.467Z,20.07
2018-05-06T04:37:36.857Z,20.30
2018-05-06T04:40:03.273Z,18.87
2018-05-06T04:42:29.669Z,17.87
2018-05-06T04:44:56.817Z,20.37
2018-05-06T04:47:23.219Z,19.07
2018-05-06T04:49:49.632Z,19.27
2018-05-06T04:52:16.049Z,21.43
2018-05-06T04:54:42.505Z,22.00
2018-05-06T04:57:09.261Z,22.70
2018-05-06T04:59:36.645Z,24.37
2018-05-06T05:02:03.793Z,23.37
2018-05-06T05:04:30.197Z,25.93
2018-05-06T05:06:56.604Z,24.07
2018-05-06T05:09:23.018Z,25.10
2018-05-06T05:11:49.413Z,25.67
2018-05-06T05:14:15.830Z,26.37
2018-05-06T05:16:42.238Z,25.57
2018-05-06T05:19:08.629Z,26.57
2018-05-06T05:21:35.781Z,24.77
2018-05-06T05:24:03.961Z,23.20
2018-05-06T05:26:30.368Z,22.20
2018-05-06T05:28:56.777Z,23.90
2018-05-06T05:31:23.189Z,21.73
2018-05-06T05:33:49.614Z,22.60
2018-05-06T05:36:16.025Z,24.10
2018-05-06T05:38:43.188Z,21.97
2018-05-06T05:41:10.337Z,23.83
2018-05-06T05:43:38.533Z,23.50
2018-05-06T05:46:05.993Z,22.47
2018-05-06T05:48:32.406Z,22.13
2018-05-06T05:50:59.566Z,21.60
2018-05-06T05:53:25.968Z,21.83
2018-05-06T05:55:52.370Z,23.43
2018-05-06T05:58:18.780Z,21.27
2018-05-06T06:00:45.212Z,20.00
2018-05-06T06:03:11.614Z,21.57
2018-05-06T06:05:38.766Z,19.37
2018-05-06T06:08:05.205Z,20.60
2018-05-06T06:10:31.613Z,19.77
2018-05-06T06:12:58.012Z,20.50
2018-05-06T06:15:24.421Z,19.90
2018-05-06T06:17:50.839Z,19.60
2018-05-06T06:20:17.268Z,20.40
2018-05-06T06:22:43.690Z,19.80
2018-05-06T06:25:10.105Z,19.57
2018-05-06T06:27:36.509Z,17.40
2018-05-06T06:30:02.946Z,19.30
2018-05-06T06:32:29.358Z,18.87
2018-05-06T06:34:55.757Z,19.30
2018-05-06T06:37:22.913Z,18.67
2018-05-06T06:39:49.334Z,21.60
2018-05-06T06:42:16.482Z,20.17
2018-05-06T06:44:44.657Z,21.37
2018-05-06T06:47:11.813Z,21.30
2018-05-06T06:49:38.961Z,19.47
2018-05-06T06:52:06.121Z,18.30
2018-05-06T06:54:32.516Z,20.20
2018-05-06T06:56:58.956Z,19.00
2018-05-06T06:59:25.373Z,19.40
2018-05-06T07:01:51.773Z,20.60
2018-05-06T07:04:18.190Z,20.47
2018-05-06T07:06:44.626Z,19.57
2018-05-06T07:09:11.037Z,21.07
2018-05-06T07:11:38.205Z,21.13
2018-05-06T07:14:04.641Z,21.70
2018-05-06T07:16:31.040Z,21.57
2018-05-06T07:18:57.441Z,22.57
2018-05-06T07:21:23.850Z,22.57
2018-05-06T07:23:51.234Z,21.03
2018-05-06T07:26:17.629Z,22.30
2018-05-06T07:28:44.049Z,21.83
2018-05-06T07:31:11.218Z,24.37
2018-05-06T07:33:37.623Z,24.03
2018-05-06T07:36:04.820Z,23.13
2018-05-06T07:38:31.277Z,23.67
2018-05-06T07:40:58.685Z,23.10
2018-05-06T07:43:25.107Z,23.60
2018-05-06T07:45:52.298Z,20.97
2018-05-06T07:48:19.789Z,23.00
2018-05-06T07:50:46.190Z,22.27
2018-05-06T07:53:12.608Z,24.07
2018-05-06T07:55:39.046Z,21.60
2018-05-06T07:58:05.466Z,21.47
2018-05-06T08:00:38.834Z,22.27
2018-05-06T08:03:06.032Z,23.50
2018-05-06T08:05:32.437Z,21.83
2018-05-06T08:07:59.585Z,21.10
2018-05-06T08:10:28.710Z,21.40
2018-05-06T08:12:55.119Z,19.13
2018-05-06T08:15:22.293Z,20.30
2018-05-06T08:17:48.696Z,20.17
2018-05-06T08:20:15.842Z,20.10
2018-05-06T08:22:42.990Z,20.53
2018-05-06T08:25:10.149Z,18.47
2018-05-06T08:27:37.333Z,19.07
2018-05-06T08:30:03.778Z,20.20
2018-05-06T08:32:31.202Z,20.90
2018-05-06T08:34:57.613Z,19.37
2018-05-06T08:37:24.018Z,18.10
2018-05-06T08:39:50.417Z,18.27
2018-05-06T08:42:17.865Z,18.20
2018-05-06T08:44:44.257Z,16.50
2018-05-06T08:47:10.674Z,17.17
2018-05-06T08:49:37.091Z,16.57
2018-05-06T08:52:04.551Z,16.87
2018-05-06T08:54:30.982Z,16.33
2018-05-06T08:56:57.390Z,15.43
2018-05-06T08:59:23.829Z,15.60
2018-05-06T09:01:50.236Z,15.53
2018-05-06T09:04:17.387Z,14.57
2018-05-06T09:06:44.542Z,13.77
2018-05-06T09:09:10.994Z,13.50
2018-05-06T09:11:37.402Z,13.13
2018-05-06T09:14:05.537Z,14.10
2018-05-06T09:16:31.993Z,14.20
2018-05-06T09:18:58.445Z,13.70
2018-05-06T09:21:25.585Z,12.40
2018-05-06T09:23:52.719Z,13.60
2018-05-06T09:26:19.689Z,12.70
2018-05-06T09:28:46.842Z,11.33
2018-05-06T09:31:13.279Z,11.20
2018-05-06T09:33:39.822Z,11.03
2018-05-06T09:36:06.253Z,9.57
2018-05-06T09:38:32.645Z,9.10
2018-05-06T09:40:59.049Z,9.47
2018-05-06T09:43:26.162Z,10.47
2018-05-06T09:45:52.611Z,9.80
2018-05-06T09:48:19.042Z,10.33
2018-05-06T09:50:46.387Z,9.87
2018-05-06T09:53:12.798Z,9.10
2018-05-06T09:55:39.954Z,9.50
2018-05-06T09:58:07.099Z,8.23
2018-05-06T10:00:41.934Z,7.00
2018-05-06T10:03:09.094Z,7.47
2018-05-06T10:05:35.503Z,7.20
2018-05-06T10:08:02.681Z,6.57
2018-05-06T10:10:29.105Z,6.67
2018-05-06T10:12:55.537Z,7.03
2018-05-06T10:15:22.669Z,6.83
2018-05-06T10:17:49.069Z,7.03
2018-05-06T10:20:15.478Z,6.80
2018-05-06T10:22:41.873Z,6.90
2018-05-06T10:25:09.017Z,6.50
2018-05-06T10:27:36.181Z,6.33
2018-05-06T10:30:03.335Z,6.50
2018-05-06T10:32:31.489Z,6.30
2018-05-06T10:34:58.630Z,5.70
2018-05-06T10:37:26.061Z,6.43
2018-05-06T10:39:53.502Z,5.83
2018-05-06T10:42:20.000Z,6.90
2018-05-06T10:44:46.398Z,5.47
2018-05-06T10:47:13.574Z,5.67
2018-05-06T10:49:40.722Z,5.63
2018-05-06T10:52:07.870Z,4.93
2018-05-06T10:54:35.038Z,4.93
2018-05-06T10:57:02.187Z,5.30
2018-05-06T10:59:29.330Z,4.40
2018-05-06T11:01:56.526Z,4.90
2018-05-06T11:04:22.916Z,4.60
2018-05-06T11:06:50.086Z,4.60
2018-05-06T11:09:16.486Z,4.87
2018-05-06T11:11:43.638Z,4.83
2018-05-06T11:14:10.782Z,5.80
2018-05-06T11:16:37.175Z,4.40
2018-05-06T11:19:03.589Z,3.70
2018-05-06T11:21:30.001Z,4.10
2018-05-06T11:23:56.409Z,4.03
2018-05-06T11:26:22.886Z,4.60
2018-05-06T11:28:49.241Z,4.80
2018-05-06T11:31:15.645Z,4.03
2018-05-06T11:33:42.119Z,4.27
2018-05-06T11:36:08.526Z,3.97
2018-05-06T11:38:34.942Z,4.20
2018-05-06T11:41:01.440Z,5.10
2018-05-06T11:43:27.822Z,3.93
2018-05-06T11:45:54.219Z,4.57
2018-05-06T11:48:21.706Z,4.03
2018-05-06T11:50:48.239Z,4.03
2018-05-06T11:53:14.651Z,3.90
2018-05-06T11:55:41.785Z,3.77
2018-05-06T11:58:08.178Z,4.30
2018-05-06T12:00:34.607Z,4.30
2018-05-06T12:03:01.001Z,3.30
2018-05-06T12:05:28.517Z,3.77
2018-05-06T12:07:54.926Z,3.63
2018-05-06T12:10:21.321Z,3.70
2018-05-06T12:12:48.461Z,3.37
2018-05-06T12:15:15.623Z,3.50
2018-05-06T12:17:42.782Z,3.50
2018-05-06T12:20:09.199Z,3.70
2018-05-06T12:22:36.333Z,3.33
2018-05-06T12:25:02.800Z,3.30
2018-05-06T12:27:29.199Z,3.97
2018-05-06T12:29:56.623Z,3.80
2018-05-06T12:32:23.029Z,3.50
2018-05-06T12:34:49.465Z,3.60
2018-05-06T12:37:15.857Z,3.10
2018-05-06T12:39:43.005Z,3.40
2018-05-06T12:42:10.181Z,2.90
2018-05-06T12:44:37.321Z,2.70
2018-05-06T12:47:04.553Z,3.10
2018-05-06T12:49:31.020Z,3.40
2018-05-06T12:51:57.408Z,2.80
2018-05-06T12:54:23.802Z,2.80
2018-05-06T12:56:50.189Z,2.37
2018-05-06T12:59:17.336Z,2.80
2018-05-06T13:01:43.733Z,2.63
2018-05-06T13:04:10.155Z,2.80
2018-05-06T13:06:36.578Z,2.73
2018-05-06T13:09:03.034Z,3.03
2018-05-06T13:11:29.487Z,2.40
2018-05-06T13:13:55.891Z,2.87
2018-05-06T13:16:22.313Z,2.60
2018-05-06T13:18:48.724Z,3.03
2018-05-06T13:21:15.871Z,3.13
2018-05-06T13:23:43.034Z,2.67
2018-05-06T13:26:09.445Z,2.80
2018-05-06T13:28:36.578Z,2.77
2018-05-06T13:31:02.977Z,2.77
2018-05-06T13:33:30.137Z,2.67
2018-05-06T13:35:56.572Z,2.80
2018-05-06T13:38:24.102Z,2.70
2018-05-06T13:40:50.530Z,2.00
2018-05-06T13:43:17.022Z,2.50
2018-05-06T13:45:44.414Z,2.40
2018-05-06T13:48:10.821Z,2.40
2018-05-06T13:50:37.237Z,3.00
2018-05-06T13:53:03.654Z,2.23
2018-05-06T13:55:30.097Z,2.40
2018-05-06T13:57:56.527Z,2.73
2018-05-06T14:00:23.727Z,3.00
2018-05-06T14:02:50.138Z,3.30
2018-05-06T14:05:17.314Z,2.73
2018-05-06T14:07:43.731Z,2.73
2018-05-06T14:10:10.862Z,2.70
2018-05-06T14:12:38.050Z,3.40
2018-05-06T14:15:05.433Z,3.03
2018-05-06T14:17:32.902Z,2.23
2018-05-06T14:20:00.631Z,2.70
2018-05-06T14:22:29.023Z,2.43
2018-05-06T14:24:58.516Z,2.83
2018-05-06T14:27:28.759Z,2.80
2018-05-06T14:29:55.271Z,2.70
2018-05-06T14:32:21.811Z,3.10
2018-05-06T14:34:48.889Z,2.70
2018-05-06T14:37:16.538Z,2.47
2018-05-06T14:39:42.942Z,2.23
2018-05-06T14:42:09.782Z,2.60
2018-05-06T14:44:36.200Z,3.10
2018-05-06T14:47:15.698Z,2.40
2018-05-06T14:49:42.374Z,2.63
2018-05-06T14:52:09.571Z,2.83
2018-05-06T14:54:35.979Z,2.83
2018-05-06T14:57:03.435Z,2.80
2018-05-06T14:59:31.038Z,2.90
2018-05-06T15:01:57.538Z,2.80
2018-05-06T15:04:23.933Z,2.43
2018-05-06T15:06:51.098Z,2.70
2018-05-06T15:09:17.509Z,3.03
2018-05-06T15:11:44.653Z,2.93
2018-05-06T15:14:11.830Z,2.63
2018-05-06T15:16:40.793Z,2.67
2018-05-06T15:19:08.294Z,2.83
2018-05-06T15:21:34.698Z,2.20
2018-05-06T15:24:01.901Z,2.90
2018-05-06T15:26:28.421Z,2.67
2018-05-06T15:28:54.873Z,2.27
2018-05-06T15:31:21.310Z,3.23
2018-05-06T15:33:48.291Z,2.70
2018-05-06T15:36:15.434Z,2.23
2018-05-06T15:38:42.321Z,2.40
2018-05-06T15:41:08.702Z,2.53
2018-05-06T15:43:35.854Z,2.57
2018-05-06T15:46:02.362Z,2.50
2018-05-06T15:48:29.698Z,2.53
2018-05-06T15:50:56.131Z,2.97
2018-05-06T15:53:23.493Z,3.20
2018-05-06T15:55:51.187Z,2.93
2018-05-06T15:58:20.678Z,2.70
2018-05-06T16:00:48.640Z,2.80
2018-05-06T16:03:29.408Z,2.53
2018-05-06T16:05:56.210Z,2.30
2018-05-06T16:08:23.403Z,2.70
2018-05-06T16:10:49.810Z,2.77
2018-05-06T16:13:16.197Z,2.60
2018-05-06T16:15:42.702Z,2.67
2018-05-06T16:18:09.058Z,2.97
2018-05-06T16:20:35.546Z,2.60
2018-05-06T16:23:01.931Z,3.10
2018-05-06T16:25:29.130Z,2.43
2018-05-06T16:27:55.518Z,2.60
2018-05-06T16:30:21.909Z,2.73
2018-05-06T16:32:48.269Z,2.00
2018-05-06T16:35:14.646Z,2.37
2018-05-06T16:37:41.962Z,2.40
2018-05-06T16:40:09.326Z,3.13
2018-05-06T16:42:36.485Z,2.90
2018-05-06T16:45:03.675Z,2.33
2018-05-06T16:47:30.049Z,2.70
2018-05-06T16:49:56.441Z,2.33
2018-05-06T16:52:22.813Z,2.63
2018-05-06T16:54:49.209Z,2.40
2018-05-06T16:57:15.982Z,2.90
2018-05-06T16:59:42.344Z,2.40
2018-05-06T17:02:09.477Z,1.87
2018-05-06T17:04:35.858Z,2.53
2018-05-06T17:07:02.299Z,2.10
2018-05-06T17:09:28.678Z,2.30
2018-05-06T17:11:55.146Z,2.23
2018-05-06T17:14:21.605Z,2.60
2018-05-06T17:16:49.063Z,2.20
2018-05-06T17:19:16.145Z,2.10
2018-05-06T17:21:42.804Z,2.17
2018-05-06T17:24:09.203Z,1.77
2018-05-06T17:26:35.590Z,1.97
2018-05-06T17:29:02.058Z,2.00
2018-05-06T17:31:28.463Z,1.60
2018-05-06T17:33:57.246Z,6.00
2018-05-06T17:36:24.918Z,2.00
2018-05-06T17:38:51.286Z,2.17
2018-05-06T17:41:17.661Z,2.13
2018-05-06T17:43:44.755Z,3.33
2018-05-06T17:46:12.641Z,1.77
2018-05-06T17:48:39.444Z,1.67
2018-05-06T17:51:06.201Z,1.90
2018-05-06T17:53:32.738Z,1.70
2018-05-06T17:56:00.174Z,1.70
2018-05-06T17:58:26.538Z,1.70
2018-05-06T18:00:53.560Z,1.70
2018-05-06T18:03:20.007Z,1.77
2018-05-06T18:05:46.375Z,1.87
2018-05-06T18:08:13.648Z,1.50
2018-05-06T18:10:40.754Z,1.90
2018-05-06T18:13:07.988Z,1.90
2018-05-06T18:15:34.406Z,1.70
2018-05-06T18:18:04.811Z,2.30
2018-05-06T18:20:31.204Z,2.03
2018-05-06T18:22:57.582Z,1.67
2018-05-06T18:25:25.871Z,1.50
2018-05-06T18:27:52.302Z,1.80
2018-05-06T18:30:18.702Z,1.73
2018-05-06T18:32:46.730Z,1.30
2018-05-06T18:35:14.067Z,1.93
2018-05-06T18:37:41.475Z,1.90
2018-05-06T18:40:07.873Z,2.10
2018-05-06T18:42:34.262Z,1.57
2018-05-06T18:45:01.406Z,1.43
2018-05-06T18:47:28.276Z,1.77
2018-05-06T18:49:54.730Z,1.47
2018-05-06T18:52:21.138Z,1.70
2018-05-06T18:54:48.019Z,1.37
2018-05-06T18:57:16.486Z,1.90
2018-05-06T18:59:42.922Z,1.73
2018-05-06T19:02:10.118Z,1.97
2018-05-06T19:04:37.992Z,1.93
2018-05-06T19:07:06.165Z,1.97
2018-05-06T19:09:34.172Z,1.73
2018-05-06T19:12:01.190Z,1.50
2018-05-06T19:14:28.316Z,1.80
2018-05-06T19:16:55.435Z,1.60
2018-05-06T19:19:21.844Z,1.47
2018-05-06T19:21:52.632Z,1.97
2018-05-06T19:24:19.354Z,2.10
2018-05-06T19:26:45.776Z,2.00
2018-05-06T19:29:12.762Z,2.13
2018-05-06T19:31:39.896Z,2.37
2018-05-06T19:34:07.222Z,1.70
2018-05-06T19:36:35.092Z,1.60
2018-05-06T19:39:01.499Z,2.87
2018-05-06T19:41:28.500Z,2.90
2018-05-06T19:43:54.902Z,1.60
2018-05-06T19:46:22.428Z,1.67
2018-05-06T19:48:48.842Z,1.77
2018-05-06T19:51:15.965Z,2.10
2018-05-06T19:53:42.679Z,1.50
2018-05-06T19:56:10.146Z,1.90
2018-05-06T19:58:36.572Z,1.60
2018-05-06T20:01:03.742Z,1.57
2018-05-06T20:03:30.123Z,1.60
2018-05-06T20:05:56.563Z,1.77
2018-05-06T20:08:22.995Z,1.43
2018-05-06T20:10:50.363Z,1.90
2018-05-06T20:13:17.627Z,1.73
2018-05-06T20:15:45.146Z,2.00
2018-05-06T20:18:12.246Z,2.40
2018-05-06T20:20:38.642Z,1.80
2018-05-06T20:23:05.075Z,1.80
2018-05-06T20:25:31.498Z,1.80
2018-05-06T20:27:57.912Z,1.90
2018-05-06T20:30:24.690Z,1.80
2018-05-06T20:32:51.136Z,1.90
2018-05-06T20:35:17.546Z,2.50
2018-05-06T20:37:44.475Z,2.03
2018-05-06T20:40:12.383Z,2.03
2018-05-06T20:42:38.758Z,1.70
2018-05-06T20:45:06.331Z,1.83
2018-05-06T20:47:34.399Z,2.40
2018-05-06T20:50:01.451Z,1.97
2018-05-06T20:52:27.870Z,2.50
2018-05-06T20:54:55.026Z,1.93
2018-05-06T20:57:23.173Z,1.83
2018-05-06T20:59:49.670Z,1.97
2018-05-06T21:02:16.049Z,2.63
2018-05-06T21:04:43.403Z,2.60
2018-05-06T21:07:09.910Z,1.70
2018-05-06T21:09:36.302Z,2.20
2018-05-06T21:12:03.650Z,2.00
2018-05-06T21:14:31.696Z,2.20
2018-05-06T21:16:58.082Z,2.10
2018-05-06T21:19:25.589Z,1.90
2018-05-06T21:21:51.965Z,2.07
2018-05-06T21:24:19.017Z,2.00
2018-05-06T21:26:45.443Z,2.20
2018-05-06T21:29:13.602Z,2.10
2018-05-06T21:31:39.987Z,2.13
2018-05-06T21:34:07.037Z,1.70
2018-05-06T21:36:34.078Z,2.43
2018-05-06T21:39:01.228Z,1.90
2018-05-06T21:41:27.554Z,2.13
2018-05-06T21:43:54.696Z,2.60
2018-05-06T21:46:21.078Z,1.80
2018-05-06T21:48:48.461Z,2.40
2018-05-06T21:51:14.830Z,2.50
2018-05-06T21:53:41.926Z,2.20
2018-05-06T21:56:08.482Z,2.10
2018-05-06T21:58:35.877Z,2.37
2018-05-06T22:01:02.269Z,2.60
2018-05-06T22:03:29.681Z,2.50
2018-05-06T22:05:56.812Z,2.80
2018-05-06T22:08:23.217Z,2.53
2018-05-06T22:10:49.926Z,2.43
2018-05-06T22:13:16.329Z,2.43
2018-05-06T22:15:42.716Z,2.30
2018-05-06T22:18:09.125Z,2.50
2018-05-06T22:20:35.503Z,2.63
2018-05-06T22:23:02.927Z,2.23
2018-05-06T22:25:29.323Z,2.60
2018-05-06T22:27:56.470Z,2.20
2018-05-06T22:30:22.839Z,2.10
2018-05-06T22:32:49.269Z,2.53
2018-05-06T22:35:15.669Z,2.83
2018-05-06T22:37:42.797Z,2.47
2018-05-06T22:40:09.198Z,2.00
2018-05-06T22:42:35.645Z,2.30
2018-05-06T22:45:02.179Z,2.30
2018-05-06T22:47:28.589Z,2.50
2018-05-06T22:49:54.998Z,2.33
2018-05-06T22:52:21.363Z,2.47
2018-05-06T22:54:47.815Z,2.30
2018-05-06T22:57:14.242Z,2.37
2018-05-06T22:59:40.649Z,1.90
2018-05-06T23:02:07.082Z,1.83
2018-05-06T23:04:33.461Z,2.20
2018-05-06T23:06:59.842Z,2.23
2018-05-06T23:09:26.232Z,2.50
2018-05-06T23:11:52.605Z,2.67
2018-05-06T23:14:19.017Z,2.20
2018-05-06T23:16:46.165Z,2.60
2018-05-06T23:19:13.974Z,2.63
2018-05-06T23:21:40.404Z,2.27
2018-05-06T23:24:06.854Z,2.37
2018-05-06T23:26:33.297Z,2.30
2018-05-06T23:29:00.086Z,3.10
2018-05-06T23:31:27.233Z,2.33
2018-05-06T23:33:54.975Z,2.30
2018-05-06T23:36:21.372Z,2.53
2018-05-06T23:38:47.777Z,2.43
2018-05-06T23:41:14.156Z,2.53
2018-05-06T23:43:40.625Z,2.50
2018-05-06T23:46:06.964Z,2.40
2018-05-06T23:48:33.352Z,2.57
2018-05-06T23:50:59.749Z,2.20
2018-05-06T23:53:26.140Z,1.90
2018-05-06T23:55:52.541Z,2.63
2018-05-06T23:58:18.949Z,2.00
